sensor_id;sensor_type;location;lat;lon;timestamp;P1;durP1;ratioP1;P2;durP2;ratioP2
84472;SDS011;74698;42.992;0.116;2023-12-29T00:01:59;0.30;;;0.30;;
84472;SDS011;74698;42.992;0.116;2023-12-29T00:04:25;0.80;;;0.50;;
84472;SDS011;74698;42.992;0.116;2023-12-29T00:06:51;0.57;;;0.40;;
84472;SDS011;74698;42.992;0.116;2023-12-29T00:09:17;0.70;;;0.40;;
84472;SDS011;74698;42.992;0.116;2023-12-29T00:11:50;0.30;;;0.20;;
84472;SDS011;74698;42.992;0.116;2023-12-29T00:14:16;0.30;;;0.20;;
84472;SDS011;74698;42.992;0.116;2023-12-29T00:16:42;1.95;;;0.50;;
84472;SDS011;74698;42.992;0.116;2023-12-29T00:19:09;1.02;;;0.93;;
84472;SDS011;74698;42.992;0.116;2023-12-29T00:21:35;0.73;;;0.22;;
84472;SDS011;74698;42.992;0.116;2023-12-29T00:24:01;0.30;;;0.30;;
84472;SDS011;74698;42.992;0.116;2023-12-29T00:26:27;0.30;;;0.20;;
84472;SDS011;74698;42.992;0.116;2023-12-29T00:28:54;2.45;;;0.25;;
84472;SDS011;74698;42.992;0.116;2023-12-29T00:31:20;0.20;;;0.20;;
84472;SDS011;74698;42.992;0.116;2023-12-29T00:33:46;0.30;;;0.30;;
84472;SDS011;74698;42.992;0.116;2023-12-29T00:36:15;0.50;;;0.22;;
84472;SDS011;74698;42.992;0.116;2023-12-29T00:38:41;0.20;;;0.10;;
84472;SDS011;74698;42.992;0.116;2023-12-29T00:41:07;1.35;;;0.30;;
84472;SDS011;74698;42.992;0.116;2023-12-29T00:43:34;0.75;;;0.10;;
84472;SDS011;74698;42.992;0.116;2023-12-29T00:46:03;0.75;;;0.40;;
84472;SDS011;74698;42.992;0.116;2023-12-29T00:48:30;0.55;;;0.20;;
84472;SDS011;74698;42.992;0.116;2023-12-29T00:50:56;0.20;;;0.20;;
84472;SDS011;74698;42.992;0.116;2023-12-29T00:53:22;0.28;;;0.20;;
84472;SDS011;74698;42.992;0.116;2023-12-29T00:55:48;0.82;;;0.30;;
84472;SDS011;74698;42.992;0.116;2023-12-29T00:58:14;0.30;;;0.20;;
84472;SDS011;74698;42.992;0.116;2023-12-29T01:00:40;0.35;;;0.10;;
84472;SDS011;74698;42.992;0.116;2023-12-29T01:03:06;1.35;;;1.05;;
84472;SDS011;74698;42.992;0.116;2023-12-29T01:05:32;0.68;;;0.28;;
84472;SDS011;74698;42.992;0.116;2023-12-29T01:07:58;0.50;;;0.30;;
84472;SDS011;74698;42.992;0.116;2023-12-29T01:10:24;0.30;;;0.30;;
84472;SDS011;74698;42.992;0.116;2023-12-29T01:12:50;0.40;;;0.20;;
84472;SDS011;74698;42.992;0.116;2023-12-29T01:15:16;0.85;;;0.20;;
84472;SDS011;74698;42.992;0.116;2023-12-29T01:17:42;0.20;;;0.10;;
84472;SDS011;74698;42.992;0.116;2023-12-29T01:20:08;1.33;;;0.10;;
84472;SDS011;74698;42.992;0.116;2023-12-29T01:22:34;0.28;;;0.20;;
84472;SDS011;74698;42.992;0.116;2023-12-29T01:25:00;0.30;;;0.20;;
84472;SDS011;74698;42.992;0.116;2023-12-29T01:27:27;0.95;;;0.50;;
84472;SDS011;74698;42.992;0.116;2023-12-29T01:29:53;0.80;;;0.22;;
84472;SDS011;74698;42.992;0.116;2023-12-29T01:32:19;1.83;;;0.20;;
84472;SDS011;74698;42.992;0.116;2023-12-29T01:34:45;1.60;;;0.30;;
84472;SDS011;74698;42.992;0.116;2023-12-29T01:37:11;0.20;;;0.13;;
84472;SDS011;74698;42.992;0.116;2023-12-29T01:39:37;0.20;;;0.20;;
84472;SDS011;74698;42.992;0.116;2023-12-29T01:42:05;0.47;;;0.20;;
84472;SDS011;74698;42.992;0.116;2023-12-29T01:44:31;0.75;;;0.30;;
84472;SDS011;74698;42.992;0.116;2023-12-29T01:46:58;0.00;;;0.00;;
84472;SDS011;74698;42.992;0.116;2023-12-29T01:49:25;0.15;;;0.15;;
84472;SDS011;74698;42.992;0.116;2023-12-29T01:51:57;0.30;;;0.17;;
84472;SDS011;74698;42.992;0.116;2023-12-29T01:54:34;0.25;;;0.22;;
84472;SDS011;74698;42.992;0.116;2023-12-29T01:57:01;1.08;;;0.45;;
84472;SDS011;74698;42.992;0.116;2023-12-29T01:59:28;0.17;;;0.17;;
84472;SDS011;74698;42.992;0.116;2023-12-29T02:01:54;0.22;;;0.20;;
84472;SDS011;74698;42.992;0.116;2023-12-29T02:04:23;1.83;;;0.20;;
84472;SDS011;74698;42.992;0.116;2023-12-29T02:06:49;0.20;;;0.20;;
84472;SDS011;74698;42.992;0.116;2023-12-29T02:09:16;0.80;;;0.70;;
84472;SDS011;74698;42.992;0.116;2023-12-29T02:11:43;0.47;;;0.38;;
84472;SDS011;74698;42.992;0.116;2023-12-29T02:14:10;0.85;;;0.25;;
84472;SDS011;74698;42.992;0.116;2023-12-29T02:19:25;0.20;;;0.20;;
84472;SDS011;74698;42.992;0.116;2023-12-29T02:21:54;0.25;;;0.10;;
84472;SDS011;74698;42.992;0.116;2023-12-29T02:24:20;0.50;;;0.15;;
84472;SDS011;74698;42.992;0.116;2023-12-29T02:26:47;0.63;;;0.20;;
84472;SDS011;74698;42.992;0.116;2023-12-29T02:29:17;1.98;;;0.28;;
84472;SDS011;74698;42.992;0.116;2023-12-29T02:31:44;0.20;;;0.20;;
84472;SDS011;74698;42.992;0.116;2023-12-29T02:34:11;1.85;;;0.20;;
84472;SDS011;74698;42.992;0.116;2023-12-29T02:36:38;0.13;;;0.10;;
84472;SDS011;74698;42.992;0.116;2023-12-29T02:39:07;1.00;;;0.28;;
84472;SDS011;74698;42.992;0.116;2023-12-29T02:41:34;0.68;;;0.25;;
84472;SDS011;74698;42.992;0.116;2023-12-29T02:44:00;1.13;;;0.20;;
84472;SDS011;74698;42.992;0.116;2023-12-29T02:46:26;0.35;;;0.20;;
84472;SDS011;74698;42.992;0.116;2023-12-29T02:48:52;0.40;;;0.20;;
84472;SDS011;74698;42.992;0.116;2023-12-29T02:51:19;0.22;;;0.20;;
84472;SDS011;74698;42.992;0.116;2023-12-29T02:53:45;0.30;;;0.20;;
84472;SDS011;74698;42.992;0.116;2023-12-29T02:56:12;0.77;;;0.30;;
84472;SDS011;74698;42.992;0.116;2023-12-29T02:58:38;0.32;;;0.32;;
84472;SDS011;74698;42.992;0.116;2023-12-29T03:01:04;1.25;;;0.20;;
84472;SDS011;74698;42.992;0.116;2023-12-29T03:03:30;0.45;;;0.38;;
84472;SDS011;74698;42.992;0.116;2023-12-29T03:05:56;0.28;;;0.10;;
84472;SDS011;74698;42.992;0.116;2023-12-29T03:08:22;0.35;;;0.17;;
84472;SDS011;74698;42.992;0.116;2023-12-29T03:10:48;0.10;;;0.10;;
84472;SDS011;74698;42.992;0.116;2023-12-29T03:13:14;0.22;;;0.22;;
84472;SDS011;74698;42.992;0.116;2023-12-29T03:15:40;0.22;;;0.22;;
84472;SDS011;74698;42.992;0.116;2023-12-29T03:18:06;0.20;;;0.20;;
84472;SDS011;74698;42.992;0.116;2023-12-29T03:20:32;1.85;;;0.40;;
84472;SDS011;74698;42.992;0.116;2023-12-29T03:22:58;0.65;;;0.22;;
84472;SDS011;74698;42.992;0.116;2023-12-29T03:25:24;0.75;;;0.20;;
84472;SDS011;74698;42.992;0.116;2023-12-29T03:27:50;0.52;;;0.20;;
84472;SDS011;74698;42.992;0.116;2023-12-29T03:30:16;0.28;;;0.25;;
84472;SDS011;74698;42.992;0.116;2023-12-29T03:32:42;2.53;;;1.00;;
84472;SDS011;74698;42.992;0.116;2023-12-29T03:35:08;0.75;;;0.30;;
84472;SDS011;74698;42.992;0.116;2023-12-29T03:37:34;0.40;;;0.20;;
84472;SDS011;74698;42.992;0.116;2023-12-29T03:40:00;1.08;;;0.10;;
84472;SDS011;74698;42.992;0.116;2023-12-29T03:42:26;0.28;;;0.20;;
84472;SDS011;74698;42.992;0.116;2023-12-29T03:44:52;0.38;;;0.20;;
84472;SDS011;74698;42.992;0.116;2023-12-29T03:47:18;0.55;;;0.22;;
84472;SDS011;74698;42.992;0.116;2023-12-29T03:49:44;0.30;;;0.22;;
84472;SDS011;74698;42.992;0.116;2023-12-29T03:52:10;0.60;;;0.30;;
84472;SDS011;74698;42.992;0.116;2023-12-29T03:54:36;0.10;;;0.10;;
84472;SDS011;74698;42.992;0.116;2023-12-29T03:57:03;0.35;;;0.13;;
84472;SDS011;74698;42.992;0.116;2023-12-29T03:59:29;0.13;;;0.13;;
84472;SDS011;74698;42.992;0.116;2023-12-29T04:01:55;0.60;;;0.20;;
84472;SDS011;74698;42.992;0.116;2023-12-29T04:04:21;0.75;;;0.10;;
84472;SDS011;74698;42.992;0.116;2023-12-29T04:06:47;0.10;;;0.05;;
84472;SDS011;74698;42.992;0.116;2023-12-29T04:09:13;0.20;;;0.20;;
84472;SDS011;74698;42.992;0.116;2023-12-29T04:11:39;0.05;;;0.05;;
84472;SDS011;74698;42.992;0.116;2023-12-29T04:14:05;0.35;;;0.10;;
84472;SDS011;74698;42.992;0.116;2023-12-29T04:16:33;0.10;;;0.10;;
84472;SDS011;74698;42.992;0.116;2023-12-29T04:18:59;0.10;;;0.10;;
84472;SDS011;74698;42.992;0.116;2023-12-29T04:21:25;0.30;;;0.00;;
84472;SDS011;74698;42.992;0.116;2023-12-29T04:23:51;0.10;;;0.10;;
84472;SDS011;74698;42.992;0.116;2023-12-29T04:26:17;1.13;;;0.17;;
84472;SDS011;74698;42.992;0.116;2023-12-29T04:28:43;0.10;;;0.10;;
84472;SDS011;74698;42.992;0.116;2023-12-29T04:31:09;0.20;;;0.10;;
84472;SDS011;74698;42.992;0.116;2023-12-29T04:33:35;0.10;;;0.10;;
84472;SDS011;74698;42.992;0.116;2023-12-29T04:36:01;0.10;;;0.08;;
84472;SDS011;74698;42.992;0.116;2023-12-29T04:38:27;0.20;;;0.10;;
84472;SDS011;74698;42.992;0.116;2023-12-29T04:40:54;0.10;;;0.10;;
84472;SDS011;74698;42.992;0.116;2023-12-29T04:43:20;1.90;;;0.30;;
84472;SDS011;74698;42.992;0.116;2023-12-29T04:45:46;0.40;;;0.22;;
84472;SDS011;74698;42.992;0.116;2023-12-29T04:48:12;0.22;;;0.20;;
84472;SDS011;74698;42.992;0.116;2023-12-29T04:50:38;0.68;;;0.30;;
84472;SDS011;74698;42.992;0.116;2023-12-29T04:53:04;0.13;;;0.13;;
84472;SDS011;74698;42.992;0.116;2023-12-29T04:55:30;1.20;;;0.35;;
84472;SDS011;74698;42.992;0.116;2023-12-29T04:57:56;0.20;;;0.10;;
84472;SDS011;74698;42.992;0.116;2023-12-29T05:00:22;0.32;;;0.30;;
84472;SDS011;74698;42.992;0.116;2023-12-29T05:02:48;0.63;;;0.25;;
84472;SDS011;74698;42.992;0.116;2023-12-29T05:05:14;0.30;;;0.28;;
84472;SDS011;74698;42.992;0.116;2023-12-29T05:07:40;0.15;;;0.13;;
84472;SDS011;74698;42.992;0.116;2023-12-29T05:10:06;0.68;;;0.20;;
84472;SDS011;74698;42.992;0.116;2023-12-29T05:12:32;0.82;;;0.30;;
84472;SDS011;74698;42.992;0.116;2023-12-29T05:14:58;0.65;;;0.40;;
84472;SDS011;74698;42.992;0.116;2023-12-29T05:17:24;1.60;;;0.30;;
84472;SDS011;74698;42.992;0.116;2023-12-29T05:19:50;0.55;;;0.55;;
84472;SDS011;74698;42.992;0.116;2023-12-29T05:22:16;0.38;;;0.30;;
84472;SDS011;74698;42.992;0.116;2023-12-29T05:24:43;2.33;;;0.40;;
84472;SDS011;74698;42.992;0.116;2023-12-29T05:27:10;0.73;;;0.40;;
84472;SDS011;74698;42.992;0.116;2023-12-29T05:29:36;0.63;;;0.30;;
84472;SDS011;74698;42.992;0.116;2023-12-29T05:32:02;0.40;;;0.20;;
84472;SDS011;74698;42.992;0.116;2023-12-29T05:34:29;0.73;;;0.20;;
84472;SDS011;74698;42.992;0.116;2023-12-29T05:36:55;1.00;;;0.08;;
84472;SDS011;74698;42.992;0.116;2023-12-29T05:39:21;1.45;;;0.63;;
84472;SDS011;74698;42.992;0.116;2023-12-29T05:41:47;0.60;;;0.30;;
84472;SDS011;74698;42.992;0.116;2023-12-29T05:44:13;0.15;;;0.15;;
84472;SDS011;74698;42.992;0.116;2023-12-29T05:46:39;0.82;;;0.30;;
84472;SDS011;74698;42.992;0.116;2023-12-29T05:49:05;0.45;;;0.45;;
84472;SDS011;74698;42.992;0.116;2023-12-29T05:51:31;0.52;;;0.20;;
84472;SDS011;74698;42.992;0.116;2023-12-29T05:53:57;0.28;;;0.10;;
84472;SDS011;74698;42.992;0.116;2023-12-29T05:56:23;0.70;;;0.20;;
84472;SDS011;74698;42.992;0.116;2023-12-29T05:58:49;1.48;;;0.30;;
84472;SDS011;74698;42.992;0.116;2023-12-29T06:01:15;1.50;;;0.20;;
84472;SDS011;74698;42.992;0.116;2023-12-29T06:03:41;0.60;;;0.25;;
84472;SDS011;74698;42.992;0.116;2023-12-29T06:06:07;2.40;;;0.30;;
84472;SDS011;74698;42.992;0.116;2023-12-29T06:08:33;0.10;;;0.08;;
84472;SDS011;74698;42.992;0.116;2023-12-29T06:11:00;0.30;;;0.20;;
84472;SDS011;74698;42.992;0.116;2023-12-29T06:13:26;0.05;;;0.05;;
84472;SDS011;74698;42.992;0.116;2023-12-29T06:15:52;0.10;;;0.10;;
84472;SDS011;74698;42.992;0.116;2023-12-29T06:18:18;0.13;;;0.10;;
84472;SDS011;74698;42.992;0.116;2023-12-29T06:20:44;0.25;;;0.10;;
84472;SDS011;74698;42.992;0.116;2023-12-29T06:23:10;0.65;;;0.30;;
84472;SDS011;74698;42.992;0.116;2023-12-29T06:25:36;0.22;;;0.22;;
84472;SDS011;74698;42.992;0.116;2023-12-29T06:28:04;1.17;;;0.75;;
84472;SDS011;74698;42.992;0.116;2023-12-29T06:30:31;1.23;;;0.35;;
84472;SDS011;74698;42.992;0.116;2023-12-29T06:32:57;0.38;;;0.30;;
84472;SDS011;74698;42.992;0.116;2023-12-29T06:35:23;0.43;;;0.20;;
84472;SDS011;74698;42.992;0.116;2023-12-29T06:37:49;0.40;;;0.20;;
84472;SDS011;74698;42.992;0.116;2023-12-29T06:40:16;0.77;;;0.40;;
84472;SDS011;74698;42.992;0.116;2023-12-29T06:42:42;0.60;;;0.28;;
84472;SDS011;74698;42.992;0.116;2023-12-29T06:45:08;1.20;;;0.28;;
84472;SDS011;74698;42.992;0.116;2023-12-29T06:47:34;1.17;;;0.20;;
84472;SDS011;74698;42.992;0.116;2023-12-29T06:50:01;0.20;;;0.10;;
84472;SDS011;74698;42.992;0.116;2023-12-29T06:52:28;0.10;;;0.10;;
84472;SDS011;74698;42.992;0.116;2023-12-29T06:54:59;0.32;;;0.10;;
84472;SDS011;74698;42.992;0.116;2023-12-29T06:57:25;1.15;;;0.28;;
84472;SDS011;74698;42.992;0.116;2023-12-29T06:59:51;0.88;;;0.30;;
84472;SDS011;74698;42.992;0.116;2023-12-29T07:02:17;1.63;;;0.45;;
84472;SDS011;74698;42.992;0.116;2023-12-29T07:04:43;0.73;;;0.30;;
84472;SDS011;74698;42.992;0.116;2023-12-29T07:07:09;0.80;;;0.40;;
84472;SDS011;74698;42.992;0.116;2023-12-29T07:09:37;1.90;;;0.30;;
84472;SDS011;74698;42.992;0.116;2023-12-29T07:12:04;1.08;;;0.38;;
84472;SDS011;74698;42.992;0.116;2023-12-29T07:14:30;0.50;;;0.20;;
84472;SDS011;74698;42.992;0.116;2023-12-29T07:16:56;0.28;;;0.20;;
84472;SDS011;74698;42.992;0.116;2023-12-29T07:19:23;0.52;;;0.30;;
84472;SDS011;74698;42.992;0.116;2023-12-29T07:21:49;0.50;;;0.30;;
84472;SDS011;74698;42.992;0.116;2023-12-29T07:24:15;0.30;;;0.20;;
84472;SDS011;74698;42.992;0.116;2023-12-29T07:26:41;1.05;;;0.57;;
84472;SDS011;74698;42.992;0.116;2023-12-29T07:29:07;0.20;;;0.20;;
84472;SDS011;74698;42.992;0.116;2023-12-29T07:31:33;0.22;;;0.13;;
84472;SDS011;74698;42.992;0.116;2023-12-29T07:33:59;0.38;;;0.25;;
84472;SDS011;74698;42.992;0.116;2023-12-29T07:36:25;0.28;;;0.20;;
84472;SDS011;74698;42.992;0.116;2023-12-29T07:38:51;0.60;;;0.25;;
84472;SDS011;74698;42.992;0.116;2023-12-29T07:41:17;0.65;;;0.30;;
84472;SDS011;74698;42.992;0.116;2023-12-29T07:43:44;0.22;;;0.22;;
84472;SDS011;74698;42.992;0.116;2023-12-29T07:46:10;0.30;;;0.20;;
84472;SDS011;74698;42.992;0.116;2023-12-29T07:48:36;0.68;;;0.20;;
84472;SDS011;74698;42.992;0.116;2023-12-29T07:51:05;0.20;;;0.20;;
84472;SDS011;74698;42.992;0.116;2023-12-29T07:53:31;0.25;;;0.10;;
84472;SDS011;74698;42.992;0.116;2023-12-29T07:55:57;0.38;;;0.20;;
84472;SDS011;74698;42.992;0.116;2023-12-29T07:58:23;0.20;;;0.20;;
84472;SDS011;74698;42.992;0.116;2023-12-29T08:00:49;0.10;;;0.10;;
84472;SDS011;74698;42.992;0.116;2023-12-29T08:03:15;0.63;;;0.60;;
84472;SDS011;74698;42.992;0.116;2023-12-29T08:05:41;0.20;;;0.20;;
84472;SDS011;74698;42.992;0.116;2023-12-29T08:08:08;0.25;;;0.25;;
84472;SDS011;74698;42.992;0.116;2023-12-29T08:10:34;0.68;;;0.35;;
84472;SDS011;74698;42.992;0.116;2023-12-29T08:13:00;0.30;;;0.30;;
84472;SDS011;74698;42.992;0.116;2023-12-29T08:15:26;0.90;;;0.40;;
84472;SDS011;74698;42.992;0.116;2023-12-29T08:17:52;0.73;;;0.55;;
84472;SDS011;74698;42.992;0.116;2023-12-29T08:20:18;1.08;;;0.30;;
84472;SDS011;74698;42.992;0.116;2023-12-29T08:22:46;1.77;;;0.30;;
84472;SDS011;74698;42.992;0.116;2023-12-29T08:25:12;1.92;;;0.55;;
84472;SDS011;74698;42.992;0.116;2023-12-29T08:27:38;0.40;;;0.40;;
84472;SDS011;74698;42.992;0.116;2023-12-29T08:30:06;1.45;;;0.22;;
84472;SDS011;74698;42.992;0.116;2023-12-29T08:32:32;0.38;;;0.20;;
84472;SDS011;74698;42.992;0.116;2023-12-29T08:34:58;1.45;;;0.17;;
84472;SDS011;74698;42.992;0.116;2023-12-29T08:37:24;1.63;;;0.30;;
84472;SDS011;74698;42.992;0.116;2023-12-29T08:39:50;0.70;;;0.30;;
84472;SDS011;74698;42.992;0.116;2023-12-29T08:42:16;0.50;;;0.32;;
84472;SDS011;74698;42.992;0.116;2023-12-29T08:44:42;1.02;;;0.55;;
84472;SDS011;74698;42.992;0.116;2023-12-29T08:47:09;4.18;;;0.50;;
84472;SDS011;74698;42.992;0.116;2023-12-29T08:49:36;1.85;;;0.50;;
84472;SDS011;74698;42.992;0.116;2023-12-29T08:52:02;0.70;;;0.50;;
84472;SDS011;74698;42.992;0.116;2023-12-29T08:54:28;0.40;;;0.40;;
84472;SDS011;74698;42.992;0.116;2023-12-29T08:56:54;0.90;;;0.57;;
84472;SDS011;74698;42.992;0.116;2023-12-29T08:59:20;0.47;;;0.40;;
84472;SDS011;74698;42.992;0.116;2023-12-29T09:01:46;5.20;;;4.80;;
84472;SDS011;74698;42.992;0.116;2023-12-29T09:04:12;1.30;;;0.38;;
84472;SDS011;74698;42.992;0.116;2023-12-29T09:06:38;1.10;;;0.60;;
84472;SDS011;74698;42.992;0.116;2023-12-29T09:09:04;0.82;;;0.57;;
84472;SDS011;74698;42.992;0.116;2023-12-29T09:11:30;0.88;;;0.30;;
84472;SDS011;74698;42.992;0.116;2023-12-29T09:13:56;1.33;;;0.30;;
84472;SDS011;74698;42.992;0.116;2023-12-29T09:16:22;0.25;;;0.20;;
84472;SDS011;74698;42.992;0.116;2023-12-29T09:18:48;0.43;;;0.20;;
84472;SDS011;74698;42.992;0.116;2023-12-29T09:21:14;1.45;;;0.73;;
84472;SDS011;74698;42.992;0.116;2023-12-29T09:23:40;1.92;;;1.10;;
84472;SDS011;74698;42.992;0.116;2023-12-29T09:26:06;5.00;;;4.50;;
84472;SDS011;74698;42.992;0.116;2023-12-29T09:28:32;4.60;;;4.15;;
84472;SDS011;74698;42.992;0.116;2023-12-29T09:30:59;1.65;;;1.30;;
84472;SDS011;74698;42.992;0.116;2023-12-29T09:33:25;2.67;;;2.22;;
84472;SDS011;74698;42.992;0.116;2023-12-29T09:35:51;1.88;;;1.50;;
84472;SDS011;74698;42.992;0.116;2023-12-29T09:38:18;1.88;;;1.08;;
84472;SDS011;74698;42.992;0.116;2023-12-29T09:40:45;1.35;;;0.88;;
84472;SDS011;74698;42.992;0.116;2023-12-29T09:43:11;1.58;;;0.98;;
84472;SDS011;74698;42.992;0.116;2023-12-29T09:45:38;1.33;;;0.88;;
84472;SDS011;74698;42.992;0.116;2023-12-29T09:48:07;0.35;;;0.30;;
84472;SDS011;74698;42.992;0.116;2023-12-29T09:50:34;0.95;;;0.50;;
84472;SDS011;74698;42.992;0.116;2023-12-29T09:53:01;0.82;;;0.50;;
84472;SDS011;74698;42.992;0.116;2023-12-29T09:55:28;0.75;;;0.40;;
84472;SDS011;74698;42.992;0.116;2023-12-29T09:57:54;1.10;;;0.95;;
84472;SDS011;74698;42.992;0.116;2023-12-29T10:00:20;0.40;;;0.40;;
84472;SDS011;74698;42.992;0.116;2023-12-29T10:02:48;1.60;;;0.60;;
84472;SDS011;74698;42.992;0.116;2023-12-29T10:05:18;1.45;;;0.57;;
84472;SDS011;74698;42.992;0.116;2023-12-29T10:07:44;0.98;;;0.60;;
84472;SDS011;74698;42.992;0.116;2023-12-29T10:10:14;0.65;;;0.63;;
84472;SDS011;74698;42.992;0.116;2023-12-29T10:12:42;1.38;;;1.08;;
84472;SDS011;74698;42.992;0.116;2023-12-29T10:15:17;6.35;;;3.72;;
84472;SDS011;74698;42.992;0.116;2023-12-29T10:23:04;4.53;;;2.90;;
84472;SDS011;74698;42.992;0.116;2023-12-29T10:25:33;24.60;;;12.82;;
84472;SDS011;74698;42.992;0.116;2023-12-29T10:28:00;11.60;;;7.00;;
84472;SDS011;74698;42.992;0.116;2023-12-29T10:30:26;4.93;;;2.47;;
84472;SDS011;74698;42.992;0.116;2023-12-29T10:32:52;8.07;;;4.40;;
84472;SDS011;74698;42.992;0.116;2023-12-29T10:35:18;4.70;;;2.70;;
84472;SDS011;74698;42.992;0.116;2023-12-29T10:37:44;5.05;;;3.17;;
84472;SDS011;74698;42.992;0.116;2023-12-29T10:40:19;10.90;;;6.00;;
84472;SDS011;74698;42.992;0.116;2023-12-29T10:42:53;8.88;;;4.63;;
84472;SDS011;74698;42.992;0.116;2023-12-29T10:45:19;26.65;;;4.68;;
84472;SDS011;74698;42.992;0.116;2023-12-29T10:47:45;8.30;;;3.90;;
84472;SDS011;74698;42.992;0.116;2023-12-29T10:50:11;5.88;;;3.40;;
84472;SDS011;74698;42.992;0.116;2023-12-29T10:52:37;5.85;;;2.40;;
84472;SDS011;74698;42.992;0.116;2023-12-29T10:55:12;3.70;;;2.10;;
84472;SDS011;74698;42.992;0.116;2023-12-29T10:57:39;3.90;;;1.55;;
84472;SDS011;74698;42.992;0.116;2023-12-29T11:00:05;0.82;;;0.77;;
84472;SDS011;74698;42.992;0.116;2023-12-29T11:02:32;1.15;;;0.43;;
84472;SDS011;74698;42.992;0.116;2023-12-29T11:05:05;0.43;;;0.22;;
84472;SDS011;74698;42.992;0.116;2023-12-29T11:07:35;1.58;;;0.98;;
84472;SDS011;74698;42.992;0.116;2023-12-29T11:10:05;1.13;;;0.70;;
84472;SDS011;74698;42.992;0.116;2023-12-29T11:12:33;1.20;;;0.85;;
84472;SDS011;74698;42.992;0.116;2023-12-29T11:15:03;0.68;;;0.50;;
84472;SDS011;74698;42.992;0.116;2023-12-29T11:17:29;1.30;;;0.90;;
84472;SDS011;74698;42.992;0.116;2023-12-29T11:19:58;0.38;;;0.22;;
84472;SDS011;74698;42.992;0.116;2023-12-29T11:22:24;2.22;;;1.70;;
84472;SDS011;74698;42.992;0.116;2023-12-29T11:24:52;2.05;;;0.50;;
84472;SDS011;74698;42.992;0.116;2023-12-29T11:27:18;1.52;;;1.00;;
84472;SDS011;74698;42.992;0.116;2023-12-29T11:29:45;1.60;;;1.10;;
84472;SDS011;74698;42.992;0.116;2023-12-29T11:32:12;0.50;;;0.40;;
84472;SDS011;74698;42.992;0.116;2023-12-29T11:34:45;0.52;;;0.32;;
84472;SDS011;74698;42.992;0.116;2023-12-29T11:37:18;1.13;;;0.60;;
84472;SDS011;74698;42.992;0.116;2023-12-29T11:39:49;1.50;;;0.75;;
84472;SDS011;74698;42.992;0.116;2023-12-29T11:42:19;1.40;;;1.10;;
84472;SDS011;74698;42.992;0.116;2023-12-29T11:47:34;0.77;;;0.68;;
84472;SDS011;74698;42.992;0.116;2023-12-29T11:50:01;0.70;;;0.70;;
84472;SDS011;74698;42.992;0.116;2023-12-29T11:52:37;0.50;;;0.50;;
84472;SDS011;74698;42.992;0.116;2023-12-29T11:55:07;0.65;;;0.50;;
84472;SDS011;74698;42.992;0.116;2023-12-29T11:57:33;0.85;;;0.40;;
84472;SDS011;74698;42.992;0.116;2023-12-29T12:00:01;0.73;;;0.50;;
84472;SDS011;74698;42.992;0.116;2023-12-29T12:02:30;1.08;;;0.50;;
84472;SDS011;74698;42.992;0.116;2023-12-29T12:04:56;0.40;;;0.40;;
84472;SDS011;74698;42.992;0.116;2023-12-29T12:09:48;0.60;;;0.47;;
84472;SDS011;74698;42.992;0.116;2023-12-29T12:12:38;1.13;;;0.60;;
84472;SDS011;74698;42.992;0.116;2023-12-29T12:15:01;1.42;;;0.70;;
84472;SDS011;74698;42.992;0.116;2023-12-29T12:17:31;2.20;;;0.90;;
84472;SDS011;74698;42.992;0.116;2023-12-29T12:20:01;0.90;;;0.70;;
84472;SDS011;74698;42.992;0.116;2023-12-29T12:22:31;0.80;;;0.70;;
84472;SDS011;74698;42.992;0.116;2023-12-29T12:25:00;0.75;;;0.75;;
84472;SDS011;74698;42.992;0.116;2023-12-29T12:27:27;0.43;;;0.40;;
84472;SDS011;74698;42.992;0.116;2023-12-29T12:29:54;1.13;;;0.85;;
84472;SDS011;74698;42.992;0.116;2023-12-29T12:32:22;0.82;;;0.80;;
84472;SDS011;74698;42.992;0.116;2023-12-29T12:34:48;1.00;;;0.73;;
84472;SDS011;74698;42.992;0.116;2023-12-29T12:37:20;0.75;;;0.73;;
84472;SDS011;74698;42.992;0.116;2023-12-29T12:39:46;2.35;;;0.70;;
84472;SDS011;74698;42.992;0.116;2023-12-29T12:42:13;0.75;;;0.75;;
84472;SDS011;74698;42.992;0.116;2023-12-29T12:44:40;1.05;;;0.82;;
84472;SDS011;74698;42.992;0.116;2023-12-29T12:47:08;1.30;;;0.80;;
84472;SDS011;74698;42.992;0.116;2023-12-29T12:49:35;1.42;;;0.95;;
84472;SDS011;74698;42.992;0.116;2023-12-29T12:52:01;1.25;;;0.90;;
84472;SDS011;74698;42.992;0.116;2023-12-29T12:54:28;1.58;;;0.77;;
84472;SDS011;74698;42.992;0.116;2023-12-29T12:56:54;1.42;;;0.80;;
84472;SDS011;74698;42.992;0.116;2023-12-29T12:59:20;2.85;;;1.27;;
84472;SDS011;74698;42.992;0.116;2023-12-29T13:01:46;3.72;;;0.82;;
84472;SDS011;74698;42.992;0.116;2023-12-29T13:04:13;1.48;;;0.90;;
84472;SDS011;74698;42.992;0.116;2023-12-29T13:06:39;2.65;;;1.10;;
84472;SDS011;74698;42.992;0.116;2023-12-29T13:09:06;0.77;;;0.77;;
84472;SDS011;74698;42.992;0.116;2023-12-29T13:11:38;1.25;;;1.00;;
84472;SDS011;74698;42.992;0.116;2023-12-29T13:14:08;0.98;;;0.85;;
84472;SDS011;74698;42.992;0.116;2023-12-29T13:16:34;1.25;;;0.80;;
84472;SDS011;74698;42.992;0.116;2023-12-29T13:19:16;2.17;;;1.30;;
84472;SDS011;74698;42.992;0.116;2023-12-29T13:21:48;2.15;;;1.27;;
84472;SDS011;74698;42.992;0.116;2023-12-29T13:24:16;2.05;;;1.50;;
84472;SDS011;74698;42.992;0.116;2023-12-29T13:26:44;1.20;;;0.95;;
84472;SDS011;74698;42.992;0.116;2023-12-29T13:29:13;2.38;;;1.02;;
84472;SDS011;74698;42.992;0.116;2023-12-29T13:31:39;1.42;;;1.10;;
84472;SDS011;74698;42.992;0.116;2023-12-29T13:34:06;0.95;;;0.80;;
84472;SDS011;74698;42.992;0.116;2023-12-29T13:39:13;2.33;;;0.90;;
84472;SDS011;74698;42.992;0.116;2023-12-29T13:41:42;2.10;;;1.08;;
84472;SDS011;74698;42.992;0.116;2023-12-29T13:44:08;2.17;;;0.80;;
84472;SDS011;74698;42.992;0.116;2023-12-29T13:46:35;1.38;;;0.88;;
84472;SDS011;74698;42.992;0.116;2023-12-29T13:49:01;0.90;;;0.75;;
84472;SDS011;74698;42.992;0.116;2023-12-29T13:51:28;2.00;;;1.05;;
84472;SDS011;74698;42.992;0.116;2023-12-29T13:54:00;1.85;;;0.80;;
84472;SDS011;74698;42.992;0.116;2023-12-29T13:56:27;2.47;;;0.82;;
84472;SDS011;74698;42.992;0.116;2023-12-29T13:58:53;1.02;;;0.80;;
84472;SDS011;74698;42.992;0.116;2023-12-29T14:01:19;1.45;;;0.77;;
84472;SDS011;74698;42.992;0.116;2023-12-29T14:03:46;1.85;;;0.90;;
84472;SDS011;74698;42.992;0.116;2023-12-29T14:06:18;1.85;;;1.10;;
84472;SDS011;74698;42.992;0.116;2023-12-29T14:08:46;1.17;;;0.70;;
84472;SDS011;74698;42.992;0.116;2023-12-29T14:11:12;2.30;;;1.20;;
84472;SDS011;74698;42.992;0.116;2023-12-29T14:13:44;2.70;;;1.15;;
84472;SDS011;74698;42.992;0.116;2023-12-29T14:16:13;1.60;;;0.90;;
84472;SDS011;74698;42.992;0.116;2023-12-29T14:18:44;1.90;;;0.80;;
84472;SDS011;74698;42.992;0.116;2023-12-29T14:21:31;1.98;;;1.17;;
84472;SDS011;74698;42.992;0.116;2023-12-29T14:26:26;2.38;;;1.00;;
84472;SDS011;74698;42.992;0.116;2023-12-29T14:31:27;1.60;;;1.00;;
84472;SDS011;74698;42.992;0.116;2023-12-29T14:33:54;2.65;;;1.10;;
84472;SDS011;74698;42.992;0.116;2023-12-29T14:36:20;3.28;;;1.85;;
84472;SDS011;74698;42.992;0.116;2023-12-29T14:38:46;1.77;;;1.27;;
84472;SDS011;74698;42.992;0.116;2023-12-29T14:41:12;1.70;;;1.08;;
84472;SDS011;74698;42.992;0.116;2023-12-29T14:43:38;3.85;;;1.48;;
84472;SDS011;74698;42.992;0.116;2023-12-29T14:46:04;1.65;;;1.10;;
84472;SDS011;74698;42.992;0.116;2023-12-29T14:48:30;4.20;;;1.65;;
84472;SDS011;74698;42.992;0.116;2023-12-29T14:50:56;2.47;;;1.40;;
84472;SDS011;74698;42.992;0.116;2023-12-29T14:53:24;3.22;;;1.60;;
84472;SDS011;74698;42.992;0.116;2023-12-29T14:55:50;3.65;;;2.28;;
84472;SDS011;74698;42.992;0.116;2023-12-29T14:58:16;3.10;;;1.23;;
84472;SDS011;74698;42.992;0.116;2023-12-29T15:00:46;1.63;;;1.08;;
84472;SDS011;74698;42.992;0.116;2023-12-29T15:03:12;5.18;;;1.17;;
84472;SDS011;74698;42.992;0.116;2023-12-29T15:05:40;2.80;;;1.60;;
84472;SDS011;74698;42.992;0.116;2023-12-29T15:08:06;2.40;;;1.50;;